createdAt,value
2022-12-04T17:28:12.523Z,53.1
2022-12-04T17:33:47.704Z,35.12
2022-12-04T17:39:24.877Z,31.919999999999998
2022-12-04T17:53:56.714Z,29.079999999999995
2022-12-04T17:59:31.876Z,32.4
2022-12-04T18:05:07.045Z,22.639999999999997
2022-12-04T18:10:42.210Z,27.759999999999998
2022-12-04T18:16:18.427Z,32.940000000000005
2022-12-04T18:21:53.526Z,28.2
2022-12-04T18:27:28.671Z,43.32
2022-12-04T18:33:03.844Z,30.52
2022-12-04T18:38:39.005Z,32.56
2022-12-04T18:44:15.146Z,20.32
2022-12-04T18:49:50.294Z,18.16
2022-12-04T18:55:25.493Z,21
2022-12-04T19:01:04.666Z,18.58
2022-12-04T19:06:41.836Z,23.96
2022-12-04T19:12:17.961Z,25.04
2022-12-04T19:17:53.190Z,19.04
2022-12-04T19:23:28.304Z,20.92
2022-12-04T19:29:04.431Z,16.94
2022-12-04T19:34:39.628Z,23.119999999999997
2022-12-04T19:40:14.777Z,76.47999999999999
2022-12-04T19:45:49.995Z,61.32000000000001
2022-12-04T19:51:26.101Z,32.4
2022-12-04T19:57:02.215Z,24.3
2022-12-04T20:02:37.412Z,15.5
2022-12-04T20:13:47.734Z,16.02
2022-12-04T20:19:22.860Z,21.36
2022-12-04T20:24:58.083Z,26.02
2022-12-04T20:30:33.268Z,13.780000000000001
2022-12-04T20:36:08.728Z,16.1
2022-12-04T20:41:44.503Z,15.64
2022-12-04T20:47:19.697Z,10.299999999999999
2022-12-04T20:52:54.834Z,12.58
2022-12-04T20:58:30.019Z,8.66
2022-12-04T21:04:05.189Z,11.2
2022-12-04T21:09:41.325Z,10.08
2022-12-04T21:15:16.495Z,9.1
2022-12-04T21:20:52.126Z,10.26
2022-12-04T21:26:27.796Z,8.72
2022-12-04T21:32:03.004Z,11.52
2022-12-04T21:37:38.134Z,9.080000000000002
2022-12-04T21:43:13.339Z,8.3
2022-12-04T21:48:48.511Z,9.180000000000001
2022-12-04T21:54:23.632Z,7.24
2022-12-04T21:59:59.124Z,8.98
2022-12-04T22:05:33.968Z,6.340000000000001
2022-12-04T22:11:13.108Z,6.980000000000001
2022-12-04T22:16:50.261Z,6.659999999999999
2022-12-04T22:22:25.492Z,8.279999999999998
2022-12-04T22:28:00.602Z,9.260000000000002
2022-12-04T22:33:35.759Z,6.24
2022-12-04T22:39:11.263Z,6.319999999999999
2022-12-04T22:44:46.085Z,4.5
2022-12-04T22:50:21.221Z,5.8999999999999995
2022-12-04T22:55:56.416Z,6.159999999999999
2022-12-04T23:01:32.564Z,6.0600000000000005
2022-12-04T23:07:07.767Z,8.1
2022-12-04T23:12:42.899Z,4.9
2022-12-04T23:18:18.028Z,7.960000000000001
2022-12-04T23:23:54.232Z,6.260000000000001
2022-12-04T23:29:51.928Z,6.220000000000001
2022-12-04T23:35:27.490Z,6.8
2022-12-04T23:41:02.650Z,5.42
2022-12-04T23:46:37.859Z,4.779999999999999
2022-12-04T23:52:12.962Z,5.000000000000001
2022-12-04T23:57:48.131Z,4.460000000000001
